地図

経路データ

SID SEASON NUMBER BASIN SUBBASIN NAME ISO_TIME NATURE LAT LON WMO_WIND WMO_PRES WMO_AGENCY TRACK_TYPE DIST2LAND LANDFALL IFLAG USA_AGENCY USA_ATCF_ID USA_LAT USA_LON USA_RECORD USA_STATUS USA_WIND USA_PRES USA_SSHS USA_R34_NE USA_R34_SE USA_R34_SW USA_R34_NW USA_R50_NE USA_R50_SE USA_R50_SW USA_R50_NW USA_R64_NE USA_R64_SE USA_R64_SW USA_R64_NW USA_POCI USA_ROCI USA_RMW USA_EYE TOKYO_LAT TOKYO_LON TOKYO_GRADE TOKYO_WIND TOKYO_PRES TOKYO_R50_DIR TOKYO_R50_LONG TOKYO_R50_SHORT TOKYO_R30_DIR TOKYO_R30_LONG TOKYO_R30_SHORT TOKYO_LAND CMA_LAT CMA_LON CMA_CAT CMA_WIND CMA_PRES HKO_LAT HKO_LON HKO_CAT HKO_WIND HKO_PRES NEWDELHI_LAT NEWDELHI_LON NEWDELHI_GRADE NEWDELHI_WIND NEWDELHI_PRES NEWDELHI_CI NEWDELHI_DP NEWDELHI_POCI REUNION_LAT REUNION_LON REUNION_TYPE REUNION_WIND REUNION_PRES REUNION_TNUM REUNION_CI REUNION_RMW REUNION_R34_NE REUNION_R34_SE REUNION_R34_SW REUNION_R34_NW REUNION_R50_NE REUNION_R50_SE REUNION_R50_SW REUNION_R50_NW REUNION_R64_NE REUNION_R64_SE REUNION_R64_SW REUNION_R64_NW BOM_LAT BOM_LON BOM_TYPE BOM_WIND BOM_PRES BOM_TNUM BOM_CI BOM_RMW BOM_R34_NE BOM_R34_SE BOM_R34_SW BOM_R34_NW BOM_R50_NE BOM_R50_SE BOM_R50_SW BOM_R50_NW BOM_R64_NE BOM_R64_SE BOM_R64_SW BOM_R64_NW BOM_ROCI BOM_POCI BOM_EYE BOM_POS_METHOD BOM_PRES_METHOD NADI_LAT NADI_LON NADI_CAT NADI_WIND NADI_PRES WELLINGTON_LAT WELLINGTON_LON WELLINGTON_WIND WELLINGTON_PRES DS824_LAT DS824_LON DS824_STAGE DS824_WIND DS824_PRES TD9636_LAT TD9636_LON TD9636_STAGE TD9636_WIND TD9636_PRES TD9635_LAT TD9635_LON TD9635_WIND TD9635_PRES TD9635_ROCI NEUMANN_LAT NEUMANN_LON NEUMANN_CLASS NEUMANN_WIND NEUMANN_PRES MLC_LAT MLC_LON MLC_CLASS MLC_WIND MLC_PRES USA_GUST BOM_GUST BOM_GUST_PER REUNION_GUST REUNION_GUST_PER USA_SEAHGT USA_SEARAD_NE USA_SEARAD_SE USA_SEARAD_SW USA_SEARAD_NW STORM_SPEED STORM_DIR
1992036S11212 1992 7 SP MM CLIFF 1992-02-04 18:00:00 NR -11.0000 -148.000 25 997 wellington main 2646 2646 ________O_____ -1 -11.0000 -148.000 25 997 11 90
1992036S11212 1992 7 SP MM CLIFF 1992-02-04 21:00:00 NR -11.0001 -147.417 main 2711 2711 ________P_____ -1 -11.0001 -147.417 27 997 12 90
1992036S11212 1992 7 SP MM CLIFF 1992-02-05 00:00:00 NR -11.0000 -146.800 30 997 wellington main 2775 2775 ________O_____ -1 -11.0000 -146.800 30 997 13 90
1992036S11212 1992 7 SP MM CLIFF 1992-02-05 03:00:00 NR -11.0000 -146.135 main 2851 2851 ________P_____ -1 -11.0000 -146.135 30 997 14 83
1992036S11212 1992 7 SP MM CLIFF 1992-02-05 06:00:00 TS -10.8333 -145.367 30 997 wellington main 2930 2930 O_______O___O_ jtwc_sh SH141992 -10.5000 -145.100 30 -1 -11.0000 -145.500 30 997 -10.5000 -145.100 TC 30 14 82
1992036S11212 1992 7 SP MM CLIFF 1992-02-05 09:00:00 TS -10.8101 -144.770 main 2995 2995 P_______P___P_ SH141992 -10.6427 -144.600 30 -1 -10.9774 -144.940 30 997 -10.6427 -144.600 TC 30 11 92
1992036S11212 1992 7 SP MM CLIFF 1992-02-05 12:00:00 TS -10.8800 -144.260 30 997 wellington main 3047 3047 O_______O___O_ jtwc_sh SH141992 -10.8000 -144.100 30 -1 -11.0000 -144.500 30 997 -10.8000 -144.100 TC 30 10 104
1992036S11212 1992 7 SP MM CLIFF 1992-02-05 15:00:00 TS -11.0349 -143.817 main 3099 3098 P_______P___P_ SH141992 -10.9849 -143.600 32 -1 -11.1347 -144.250 32 996 -10.9849 -143.600 TC 32 9 113
1992036S11212 1992 7 SP MM CLIFF 1992-02-05 18:00:00 TS -11.2333 -143.400 35 995 wellington main 3139 3138 O_______O___O_ jtwc_sh SH141992 -11.2000 -143.100 35 0 -11.3000 -144.000 35 995 -11.2000 -143.100 TC 35 10 114
1992036S11212 1992 7 SP MM CLIFF 1992-02-05 21:00:00 TS -11.4232 -142.922 main 3190 3190 P_______P___P_ SH141992 -11.4349 -142.600 37 0 -11.3999 -143.567 37 992 -11.4349 -142.600 TC 37 11 112
1992036S11212 1992 7 SP MM CLIFF 1992-02-06 00:00:00 TS -11.6333 -142.400 40 990 wellington main 3241 3241 O_______O___O_ jtwc_sh SH141992 -11.7000 -142.100 40 0 -11.5000 -143.000 40 990 -11.7000 -142.100 TC 40 12 112
1992036S11212 1992 7 SP MM CLIFF 1992-02-06 03:00:00 TS -11.8634 -141.831 main 3302 3302 P_______P___P_ SH141992 -11.9925 -141.592 45 0 -11.6052 -142.307 42 988 -11.9925 -141.592 TC 45 12 114
1992036S11212 1992 7 SP MM CLIFF 1992-02-06 06:00:00 TS -12.1333 -141.267 45 987 wellington main 3353 3353 O_______O___O_ jtwc_sh SH141992 -12.3000 -141.100 50 0 -11.8000 -141.600 45 987 -12.3000 -141.100 TC 50 12 118
1992036S11212 1992 7 SP MM CLIFF 1992-02-06 09:00:00 TS -12.4266 -140.756 main 3403 3403 P_______P___P_ SH141992 -12.5699 -140.635 55 0 -12.1399 -140.998 47 986 -12.5699 -140.635 TC 55 12 125
1992036S11212 1992 7 SP MM CLIFF 1992-02-06 12:00:00 TS -12.8000 -140.300 50 985 wellington main 3453 3453 O_______O___O_ jtwc_sh SH141992 -12.9000 -140.200 60 0 -12.6000 -140.500 50 985 -12.9000 -140.200 TC 60 12 135
1992036S11212 1992 7 SP MM CLIFF 1992-02-06 15:00:00 TS -13.2766 -139.879 main 3491 3491 P_______P___P_ SH141992 -13.3475 -139.770 62 0 -13.1349 -140.097 52 982 -13.3475 -139.770 TC 62 13 144
1992036S11212 1992 7 SP MM CLIFF 1992-02-06 18:00:00 TS -13.8333 -139.533 55 980 wellington main 3530 3528 O_______O___O_ jtwc_sh SH141992 -13.9000 -139.400 65 1 -13.7000 -139.800 55 980 -13.9000 -139.400 TC 65 13 153
1992036S11212 1992 7 SP MM CLIFF 1992-02-06 21:00:00 TS -14.4107 -139.275 main 3547 3547 P_______P___P_ SH141992 -14.5274 -139.120 67 1 -14.1774 -139.585 55 980 -14.5274 -139.120 TC 67 13 159
1992036S11212 1992 7 SP MM CLIFF 1992-02-07 00:00:00 TS -15.0333 -139.067 55 980 wellington main 3565 3565 O_______O___O_ jtwc_sh SH141992 -15.2000 -138.900 70 1 -14.7000 -139.400 55 980 -15.2000 -138.900 TC 70 14 162
1992036S11212 1992 7 SP MM CLIFF 1992-02-07 03:00:00 TS -15.6900 -138.842 main 3595 3595 P_______P___P_ SH141992 -15.8500 -138.685 70 1 -15.3700 -139.157 55 980 -15.8500 -138.685 TC 70 14 163
1992036S11212 1992 7 SP MM CLIFF 1992-02-07 06:00:00 TS -16.3667 -138.633 55 980 wellington main 3616 3616 O_______O___O_ jtwc_sh SH141992 -16.5000 -138.500 70 1 -16.1000 -138.900 55 980 -16.5000 -138.500 TC 70 14 164
1992036S11212 1992 7 SP MM CLIFF 1992-02-07 09:00:00 TS -17.0308 -138.442 main 3638 3638 P_______P___P_ SH141992 -17.1575 -138.342 65 1 -16.7775 -138.642 55 980 -17.1575 -138.342 TC 65 14 165
1992036S11212 1992 7 SP MM CLIFF 1992-02-07 12:00:00 TS -17.7000 -138.267 55 980 wellington main 3650 3650 O_______O___O_ jtwc_sh SH141992 -17.8000 -138.200 60 0 -17.5000 -138.400 55 980 -17.8000 -138.200 TC 60 14 166
1992036S11212 1992 7 SP MM CLIFF 1992-02-07 15:00:00 TS -18.3808 -138.100 main 3674 3674 P_______P___P_ SH141992 -18.4000 -138.050 57 0 -18.3424 -138.200 52 982 -18.4000 -138.050 TC 57 14 167
1992036S11212 1992 7 SP MM CLIFF 1992-02-07 18:00:00 TS -19.0667 -137.933 50 985 wellington main 3700 3700 O_______O___O_ jtwc_sh SH141992 -19.0000 -137.900 55 0 -19.2000 -138.000 50 985 -19.0000 -137.900 TC 55 14 167
1992036S11212 1992 7 SP MM CLIFF 1992-02-07 21:00:00 TS -19.7399 -137.772 main 3716 3716 P_______P___P_ SH141992 -19.6349 -137.765 55 0 -19.9498 -137.787 50 986 -19.6349 -137.765 TC 55 14 166
1992036S11212 1992 7 SP MM CLIFF 1992-02-08 00:00:00 TS -20.4333 -137.567 50 987 wellington main 3743 3743 O_______O___O_ jtwc_sh SH141992 -20.3000 -137.600 55 0 -20.7000 -137.500 50 987 -20.3000 -137.600 TC 55 15 163
1992036S11212 1992 7 SP MM CLIFF 1992-02-08 03:00:00 TS -21.1707 -137.302 main 3784 3784 P_______P___P_ SH141992 -20.9848 -137.402 52 0 -21.5424 -137.102 50 988 -20.9848 -137.402 TC 52 16 159
1992036S11212 1992 7 SP MM CLIFF 1992-02-08 06:00:00 TS -21.9333 -136.933 50 990 wellington main 3835 3835 O_______O___O_ jtwc_sh SH141992 -21.7000 -137.100 50 0 -22.4000 -136.600 50 990 -21.7000 -137.100 TC 50 17 153
1992036S11212 1992 7 SP MM CLIFF 1992-02-08 09:00:00 TS -22.6873 -136.457 main 3888 3888 P_______P___P_ SH141992 -22.4273 -136.667 50 0 -23.2073 -136.037 47 991 -22.4273 -136.667 TC 50 18 147
1992036S11212 1992 7 SP MM CLIFF 1992-02-08 12:00:00 TS -23.4667 -135.867 45 993 wellington main 3963 3963 O_______O___O_ jtwc_sh SH141992 -23.2000 -136.100 50 0 -24.0000 -135.400 45 993 -23.2000 -136.100 TC 50 20 145
1992036S11212 1992 7 SP MM CLIFF 1992-02-08 15:00:00 TS -24.2993 -135.231 main 4048 4048 P_______P___P_ SH141992 -24.0413 -135.503 50 0 -24.8152 -134.685 42 994 -24.0413 -135.503 TC 50 21 143
1992036S11212 1992 7 SP MM CLIFF 1992-02-08 18:00:00 TS -25.1333 -134.467 40 995 wellington main 4133 4133 O_______O___O_ jtwc_sh SH141992 -24.9000 -134.700 50 0 -25.6000 -134.000 40 995 -24.9000 -134.700 TC 50 22 138
1992036S11212 1992 7 SP MM CLIFF 1992-02-08 21:00:00 TS -25.9444 -133.577 main 4238 4238 P_______P___P_ SH141992 -25.7446 -133.613 50 0 -26.3440 -133.506 40 995 -25.7446 -133.613 TC 50 23 131
1992036S11212 1992 7 SP MM CLIFF 1992-02-09 00:00:00 TS -26.6667 -132.533 40 996 wellington main 4363 4363 O_______O___O_ jtwc_sh SH141992 -26.5000 -132.300 50 0 -27.0000 -133.000 40 996 -26.5000 -132.300 TC 50 24 123
1992036S11212 1992 7 SP MM CLIFF 1992-02-09 03:00:00 TS -27.2494 -131.363 main 4481 4481 P_______P___P_ SH141992 -27.1091 -130.901 47 0 -27.5301 -132.287 40 996 -27.1091 -130.901 TC 47 23 118
1992036S11212 1992 7 SP MM CLIFF 1992-02-09 06:00:00 ET -27.7600 -130.240 40 997 wellington main 4609 4609 O_______O___O_ jtwc_sh SH141992 -27.6000 -129.400 45 0 -28.0000 -131.500 40 997 -27.6000 -129.400 EX 45 21 119
1992036S11212 1992 7 SP MM CLIFF 1992-02-09 09:00:00 ET -28.2604 -129.286 main 4707 4707 P_______P___P_ SH141992 -28.0208 -127.860 45 0 -28.5001 -130.712 37 997 -28.0208 -127.860 EX 45 17 129
1992036S11212 1992 7 SP MM CLIFF 1992-02-09 12:00:00 ET -28.8000 -128.767 35 998 wellington main 4765 4714 O_______O___O_ jtwc_sh SH141992 -28.4000 -126.300 45 0 -29.0000 -130.000 35 998 -28.4000 -126.300 EX 45 13 188
1992036S11212 1992 7 SP MM CLIFF 1992-02-09 15:00:00 NR -29.5363 -129.499 main 4714 4714 ________P_____ SH141992 -1 -29.5363 -129.499 35 998 EX 12 190
1992036S11212 1992 7 SP MM CLIFF 1992-02-09 18:00:00 NR -30.0000 -129.000 35 998 wellington main 4774 4772 ________O_____ -1 -30.0000 -129.000 35 998 13 124
1992036S11212 1992 7 SP MM CLIFF 1992-02-09 21:00:00 NR -30.2657 -128.249 main 4772 4745 ________P_____ -1 -30.2657 -128.249 35 998 14 111
1992036S11212 1992 7 SP MM CLIFF 1992-02-10 00:00:00 NR -30.5000 -127.500 35 998 wellington main 4745 4680 ________O_____ -1 -30.5000 -127.500 35 998 12 120
1992036S11212 1992 7 SP MM CLIFF 1992-02-10 03:00:00 NR -30.8838 -126.999 main 4680 4615 ________P_____ -1 -30.8838 -126.999 35 998 12 133
1992036S11212 1992 7 SP MM CLIFF 1992-02-10 06:00:00 NR -31.3000 -126.500 35 998 wellington main 4615 4556 ________O_____ -1 -31.3000 -126.500 35 998 12 124
1992036S11212 1992 7 SP MM CLIFF 1992-02-10 09:00:00 NR -31.5595 -125.821 main 4542 4455 ________P_____ -1 -31.5595 -125.821 35 998 15 119
1992036S11212 1992 7 SP MM CLIFF 1992-02-10 12:00:00 NR -32.0000 -125.000 35 998 wellington main 4455 4341 ________O_____ -1 -32.0000 -125.000 35 998 19 131
1992036S11212 1992 7 SP MM CLIFF 1992-02-10 15:00:00 NR -32.8258 -124.107 main 4334 4188 ________P_____ -1 -32.8258 -124.107 35 998 26 140
1992036S11212 1992 7 SP MM CLIFF 1992-02-10 18:00:00 NR -34.0000 -123.000 35 998 wellington main 4174 3988 ________O_____ -1 -34.0000 -123.000 35 998 34 142
1992036S11212 1992 7 SP MM CLIFF 1992-02-10 21:00:00 NR -35.5008 -121.581 main 3975 3778 ________P_____ -1 -35.5008 -121.581 35 998 39 141
1992036S11212 1992 7 SP MM CLIFF 1992-02-11 00:00:00 NR -37.0000 -120.000 35 998 wellington main 3765 3602 ________O_____ -1 -37.0000 -120.000 35 998 36 136
1992036S11212 1992 7 SP MM CLIFF 1992-02-11 03:00:00 NR -38.0728 -118.492 main 3589 3440 ________P_____ -1 -38.0728 -118.492 35 998 31 130
1992036S11212 1992 7 SP MM CLIFF 1992-02-11 06:00:00 NR -39.0000 -117.000 main 3427 3274 ________O_____ -1 -39.0000 -117.000 35 998 30 129
1992036S11212 1992 7 SP MM CLIFF 1992-02-11 09:00:00 NR -39.9790 -115.511 main 3261 3111 ________P_____ -1 -39.9790 -115.511 35 998 30 131
1992036S11212 1992 7 SP MM CLIFF 1992-02-11 12:00:00 NR -41.0000 -114.000 main 3099 ________O_____ -1 -41.0000 -114.000 35 998 31 132

デジタル台風データ・検索

IBTrACS Databaseについて

本データベースは、米国NOAAが公開する1842年以降の世界の熱帯低気圧のベストトラックデータアーカイブInternational Best Track Archive for Climate Stewardship (IBTrACS)を、ウェブで閲覧しやすい形式に変換したものです。

最終更新日:2021-10-21